sensor_id;sensor_type;location;lat;lon;timestamp;temperature;humidity
16827;DHT22;8530;49.540;8.576;2023-03-19T00:02:03;12.10;47.00
16827;DHT22;8530;49.540;8.576;2023-03-19T00:04:30;12.10;47.00
16827;DHT22;8530;49.540;8.576;2023-03-19T00:06:57;12.10;46.90
16827;DHT22;8530;49.540;8.576;2023-03-19T00:09:25;12.20;47.00
16827;DHT22;8530;49.540;8.576;2023-03-19T00:11:52;12.20;47.00
16827;DHT22;8530;49.540;8.576;2023-03-19T00:14:19;12.30;47.10
16827;DHT22;8530;49.540;8.576;2023-03-19T00:16:45;12.40;47.10
16827;DHT22;8530;49.540;8.576;2023-03-19T00:19:12;12.40;47.10
16827;DHT22;8530;49.540;8.576;2023-03-19T00:21:39;12.50;47.00
16827;DHT22;8530;49.540;8.576;2023-03-19T00:24:06;12.60;47.00
16827;DHT22;8530;49.540;8.576;2023-03-19T00:26:36;12.60;46.90
16827;DHT22;8530;49.540;8.576;2023-03-19T00:29:03;12.60;46.90
16827;DHT22;8530;49.540;8.576;2023-03-19T00:31:30;12.50;46.90
16827;DHT22;8530;49.540;8.576;2023-03-19T00:33:58;12.50;46.90
16827;DHT22;8530;49.540;8.576;2023-03-19T00:36:25;12.40;46.80
16827;DHT22;8530;49.540;8.576;2023-03-19T00:38:52;12.40;46.90
16827;DHT22;8530;49.540;8.576;2023-03-19T00:41:20;12.30;46.90
16827;DHT22;8530;49.540;8.576;2023-03-19T00:43:51;12.30;46.90
16827;DHT22;8530;49.540;8.576;2023-03-19T00:46:18;12.30;47.00
16827;DHT22;8530;49.540;8.576;2023-03-19T00:48:45;12.30;47.10
16827;DHT22;8530;49.540;8.576;2023-03-19T00:51:12;12.30;47.10
16827;DHT22;8530;49.540;8.576;2023-03-19T00:53:40;12.30;47.10
16827;DHT22;8530;49.540;8.576;2023-03-19T00:56:08;12.30;47.20
16827;DHT22;8530;49.540;8.576;2023-03-19T00:58:35;12.30;47.20
16827;DHT22;8530;49.540;8.576;2023-03-19T01:01:04;12.30;47.30
16827;DHT22;8530;49.540;8.576;2023-03-19T01:03:31;12.30;47.20
16827;DHT22;8530;49.540;8.576;2023-03-19T01:05:58;12.40;47.30
16827;DHT22;8530;49.540;8.576;2023-03-19T01:08:25;12.40;47.40
16827;DHT22;8530;49.540;8.576;2023-03-19T01:10:52;12.40;47.40
16827;DHT22;8530;49.540;8.576;2023-03-19T01:13:19;12.30;47.30
16827;DHT22;8530;49.540;8.576;2023-03-19T01:15:45;12.30;47.40
16827;DHT22;8530;49.540;8.576;2023-03-19T01:18:14;12.30;47.50
16827;DHT22;8530;49.540;8.576;2023-03-19T01:20:40;12.30;47.60
16827;DHT22;8530;49.540;8.576;2023-03-19T01:23:07;12.20;47.50
16827;DHT22;8530;49.540;8.576;2023-03-19T01:25:34;12.10;47.60
16827;DHT22;8530;49.540;8.576;2023-03-19T01:28:01;12.00;47.60
16827;DHT22;8530;49.540;8.576;2023-03-19T01:30:28;11.90;47.70
16827;DHT22;8530;49.540;8.576;2023-03-19T01:32:55;11.80;47.70
16827;DHT22;8530;49.540;8.576;2023-03-19T01:35:23;11.70;47.80
16827;DHT22;8530;49.540;8.576;2023-03-19T01:37:49;11.60;48.00
16827;DHT22;8530;49.540;8.576;2023-03-19T01:40:16;11.60;48.10
16827;DHT22;8530;49.540;8.576;2023-03-19T01:42:54;11.50;48.20
16827;DHT22;8530;49.540;8.576;2023-03-19T01:45:32;11.50;48.40
16827;DHT22;8530;49.540;8.576;2023-03-19T01:47:59;11.40;48.40
16827;DHT22;8530;49.540;8.576;2023-03-19T01:50:39;11.40;48.50
16827;DHT22;8530;49.540;8.576;2023-03-19T01:53:06;11.40;48.70
16827;DHT22;8530;49.540;8.576;2023-03-19T01:55:34;11.40;48.80
16827;DHT22;8530;49.540;8.576;2023-03-19T01:58:00;11.40;49.00
16827;DHT22;8530;49.540;8.576;2023-03-19T02:00:28;11.40;49.10
16827;DHT22;8530;49.540;8.576;2023-03-19T02:02:59;11.40;49.20
16827;DHT22;8530;49.540;8.576;2023-03-19T02:05:28;11.40;49.30
16827;DHT22;8530;49.540;8.576;2023-03-19T02:07:59;11.50;49.50
16827;DHT22;8530;49.540;8.576;2023-03-19T02:10:28;11.50;49.60
16827;DHT22;8530;49.540;8.576;2023-03-19T02:12:55;11.50;49.70
16827;DHT22;8530;49.540;8.576;2023-03-19T02:15:22;11.40;49.70
16827;DHT22;8530;49.540;8.576;2023-03-19T02:17:49;11.40;49.80
16827;DHT22;8530;49.540;8.576;2023-03-19T02:20:19;11.40;50.00
16827;DHT22;8530;49.540;8.576;2023-03-19T02:22:56;11.30;50.10
16827;DHT22;8530;49.540;8.576;2023-03-19T02:25:28;11.30;50.20
16827;DHT22;8530;49.540;8.576;2023-03-19T02:27:59;11.20;50.40
16827;DHT22;8530;49.540;8.576;2023-03-19T02:30:30;11.10;50.50
16827;DHT22;8530;49.540;8.576;2023-03-19T02:32:57;11.10;50.90
16827;DHT22;8530;49.540;8.576;2023-03-19T02:35:26;11.10;51.20
16827;DHT22;8530;49.540;8.576;2023-03-19T02:37:55;11.10;51.20
16827;DHT22;8530;49.540;8.576;2023-03-19T02:40:23;11.10;51.30
16827;DHT22;8530;49.540;8.576;2023-03-19T02:42:51;11.10;51.40
16827;DHT22;8530;49.540;8.576;2023-03-19T02:45:19;11.10;51.60
16827;DHT22;8530;49.540;8.576;2023-03-19T02:47:46;11.20;51.90
16827;DHT22;8530;49.540;8.576;2023-03-19T02:50:12;11.20;52.10
16827;DHT22;8530;49.540;8.576;2023-03-19T02:52:39;11.30;52.30
16827;DHT22;8530;49.540;8.576;2023-03-19T02:55:07;11.30;52.60
16827;DHT22;8530;49.540;8.576;2023-03-19T02:57:34;11.40;52.60
16827;DHT22;8530;49.540;8.576;2023-03-19T03:00:00;11.40;52.70
16827;DHT22;8530;49.540;8.576;2023-03-19T03:02:28;11.50;52.80
16827;DHT22;8530;49.540;8.576;2023-03-19T03:04:56;11.50;52.80
16827;DHT22;8530;49.540;8.576;2023-03-19T03:07:22;11.60;52.90
16827;DHT22;8530;49.540;8.576;2023-03-19T03:09:49;11.60;53.00
16827;DHT22;8530;49.540;8.576;2023-03-19T03:12:17;11.60;53.00
16827;DHT22;8530;49.540;8.576;2023-03-19T03:14:43;11.70;53.10
16827;DHT22;8530;49.540;8.576;2023-03-19T03:17:10;11.70;53.20
16827;DHT22;8530;49.540;8.576;2023-03-19T03:19:39;11.80;53.30
16827;DHT22;8530;49.540;8.576;2023-03-19T03:22:06;11.80;53.40
16827;DHT22;8530;49.540;8.576;2023-03-19T03:24:33;11.90;53.50
16827;DHT22;8530;49.540;8.576;2023-03-19T03:27:00;11.90;53.50
16827;DHT22;8530;49.540;8.576;2023-03-19T03:29:27;11.90;53.60
16827;DHT22;8530;49.540;8.576;2023-03-19T03:31:53;12.00;53.80
16827;DHT22;8530;49.540;8.576;2023-03-19T03:34:20;12.00;53.70
16827;DHT22;8530;49.540;8.576;2023-03-19T03:36:49;12.00;53.80
16827;DHT22;8530;49.540;8.576;2023-03-19T03:39:15;12.00;53.90
16827;DHT22;8530;49.540;8.576;2023-03-19T03:41:43;12.00;53.90
16827;DHT22;8530;49.540;8.576;2023-03-19T03:44:10;12.00;54.00
16827;DHT22;8530;49.540;8.576;2023-03-19T03:46:36;12.10;54.10
16827;DHT22;8530;49.540;8.576;2023-03-19T03:49:03;12.00;54.10
16827;DHT22;8530;49.540;8.576;2023-03-19T03:51:30;12.10;54.30
16827;DHT22;8530;49.540;8.576;2023-03-19T03:53:58;12.00;54.30
16827;DHT22;8530;49.540;8.576;2023-03-19T03:56:25;12.00;54.40
16827;DHT22;8530;49.540;8.576;2023-03-19T03:58:52;12.00;54.40
16827;DHT22;8530;49.540;8.576;2023-03-19T04:01:19;12.00;54.50
16827;DHT22;8530;49.540;8.576;2023-03-19T04:03:45;12.00;54.60
16827;DHT22;8530;49.540;8.576;2023-03-19T04:06:14;12.00;54.70
16827;DHT22;8530;49.540;8.576;2023-03-19T04:08:42;12.00;54.90
16827;DHT22;8530;49.540;8.576;2023-03-19T04:11:10;12.00;55.00
16827;DHT22;8530;49.540;8.576;2023-03-19T04:13:37;12.00;55.10
16827;DHT22;8530;49.540;8.576;2023-03-19T04:16:04;12.00;55.10
16827;DHT22;8530;49.540;8.576;2023-03-19T04:18:30;11.90;55.20
16827;DHT22;8530;49.540;8.576;2023-03-19T04:20:57;11.90;55.30
16827;DHT22;8530;49.540;8.576;2023-03-19T04:23:24;11.90;55.40
16827;DHT22;8530;49.540;8.576;2023-03-19T04:25:51;11.90;55.50
16827;DHT22;8530;49.540;8.576;2023-03-19T04:28:19;11.80;55.50
16827;DHT22;8530;49.540;8.576;2023-03-19T04:30:46;11.80;55.70
16827;DHT22;8530;49.540;8.576;2023-03-19T04:33:13;11.80;55.80
16827;DHT22;8530;49.540;8.576;2023-03-19T04:35:39;11.70;55.80
16827;DHT22;8530;49.540;8.576;2023-03-19T04:38:06;11.70;55.90
16827;DHT22;8530;49.540;8.576;2023-03-19T04:40:33;11.70;56.10
16827;DHT22;8530;49.540;8.576;2023-03-19T04:43:00;11.70;56.20
16827;DHT22;8530;49.540;8.576;2023-03-19T04:45:28;11.60;56.30
16827;DHT22;8530;49.540;8.576;2023-03-19T04:47:55;11.70;56.40
16827;DHT22;8530;49.540;8.576;2023-03-19T04:50:22;11.70;56.50
16827;DHT22;8530;49.540;8.576;2023-03-19T04:52:49;11.70;56.70
16827;DHT22;8530;49.540;8.576;2023-03-19T04:55:16;11.60;56.70
16827;DHT22;8530;49.540;8.576;2023-03-19T04:57:42;11.70;57.00
16827;DHT22;8530;49.540;8.576;2023-03-19T05:00:10;11.70;57.00
16827;DHT22;8530;49.540;8.576;2023-03-19T05:02:40;11.70;57.20
16827;DHT22;8530;49.540;8.576;2023-03-19T05:05:08;11.70;57.30
16827;DHT22;8530;49.540;8.576;2023-03-19T05:07:35;11.70;57.40
16827;DHT22;8530;49.540;8.576;2023-03-19T05:10:03;11.60;57.40
16827;DHT22;8530;49.540;8.576;2023-03-19T05:12:29;11.70;57.70
16827;DHT22;8530;49.540;8.576;2023-03-19T05:14:56;11.60;57.70
16827;DHT22;8530;49.540;8.576;2023-03-19T05:17:23;11.70;57.90
16827;DHT22;8530;49.540;8.576;2023-03-19T05:19:51;11.70;58.00
16827;DHT22;8530;49.540;8.576;2023-03-19T05:22:18;11.70;58.10
16827;DHT22;8530;49.540;8.576;2023-03-19T05:24:45;11.70;58.10
16827;DHT22;8530;49.540;8.576;2023-03-19T05:27:11;11.70;58.30
16827;DHT22;8530;49.540;8.576;2023-03-19T05:29:38;11.70;58.50
16827;DHT22;8530;49.540;8.576;2023-03-19T05:32:06;11.70;58.50
16827;DHT22;8530;49.540;8.576;2023-03-19T05:34:34;11.70;58.60
16827;DHT22;8530;49.540;8.576;2023-03-19T05:37:03;11.70;58.80
16827;DHT22;8530;49.540;8.576;2023-03-19T05:39:30;11.70;58.90
16827;DHT22;8530;49.540;8.576;2023-03-19T05:41:57;11.60;58.90
16827;DHT22;8530;49.540;8.576;2023-03-19T05:44:23;11.70;59.10
16827;DHT22;8530;49.540;8.576;2023-03-19T05:46:50;11.70;59.20
16827;DHT22;8530;49.540;8.576;2023-03-19T05:49:17;11.70;59.40
16827;DHT22;8530;49.540;8.576;2023-03-19T05:51:44;11.70;59.50
16827;DHT22;8530;49.540;8.576;2023-03-19T05:54:12;11.70;59.60
16827;DHT22;8530;49.540;8.576;2023-03-19T05:56:39;11.70;59.70
16827;DHT22;8530;49.540;8.576;2023-03-19T05:59:05;11.70;59.90
16827;DHT22;8530;49.540;8.576;2023-03-19T06:01:32;11.80;60.00
16827;DHT22;8530;49.540;8.576;2023-03-19T06:03:59;11.70;60.10
16827;DHT22;8530;49.540;8.576;2023-03-19T06:06:26;11.80;60.40
16827;DHT22;8530;49.540;8.576;2023-03-19T06:08:52;11.80;60.50
16827;DHT22;8530;49.540;8.576;2023-03-19T06:11:21;11.80;60.60
16827;DHT22;8530;49.540;8.576;2023-03-19T06:13:47;11.80;60.70
16827;DHT22;8530;49.540;8.576;2023-03-19T06:16:14;11.90;60.90
16827;DHT22;8530;49.540;8.576;2023-03-19T06:18:41;11.90;61.00
16827;DHT22;8530;49.540;8.576;2023-03-19T06:21:08;11.90;61.10
16827;DHT22;8530;49.540;8.576;2023-03-19T06:23:35;11.90;61.20
16827;DHT22;8530;49.540;8.576;2023-03-19T06:26:02;12.00;61.30
16827;DHT22;8530;49.540;8.576;2023-03-19T06:28:30;12.00;61.40
16827;DHT22;8530;49.540;8.576;2023-03-19T06:30:57;12.10;61.50
16827;DHT22;8530;49.540;8.576;2023-03-19T06:33:24;12.10;61.60
16827;DHT22;8530;49.540;8.576;2023-03-19T06:35:56;12.20;61.70
16827;DHT22;8530;49.540;8.576;2023-03-19T06:38:23;12.20;61.80
16827;DHT22;8530;49.540;8.576;2023-03-19T06:40:50;12.30;61.90
16827;DHT22;8530;49.540;8.576;2023-03-19T06:43:17;12.30;61.90
16827;DHT22;8530;49.540;8.576;2023-03-19T06:45:45;12.40;62.00
16827;DHT22;8530;49.540;8.576;2023-03-19T06:48:12;12.50;62.10
16827;DHT22;8530;49.540;8.576;2023-03-19T06:50:39;12.60;62.20
16827;DHT22;8530;49.540;8.576;2023-03-19T06:53:06;12.70;62.30
16827;DHT22;8530;49.540;8.576;2023-03-19T06:55:33;12.80;62.30
16827;DHT22;8530;49.540;8.576;2023-03-19T06:57:59;13.10;62.50
16827;DHT22;8530;49.540;8.576;2023-03-19T07:00:26;13.30;62.50
16827;DHT22;8530;49.540;8.576;2023-03-19T07:02:54;13.50;62.50
16827;DHT22;8530;49.540;8.576;2023-03-19T07:05:21;13.70;62.30
16827;DHT22;8530;49.540;8.576;2023-03-19T07:07:48;13.80;62.10
16827;DHT22;8530;49.540;8.576;2023-03-19T07:10:17;14.00;62.00
16827;DHT22;8530;49.540;8.576;2023-03-19T07:12:44;14.20;61.90
16827;DHT22;8530;49.540;8.576;2023-03-19T07:15:11;14.30;61.60
16827;DHT22;8530;49.540;8.576;2023-03-19T07:17:37;14.40;61.40
16827;DHT22;8530;49.540;8.576;2023-03-19T07:20:06;14.60;61.20
16827;DHT22;8530;49.540;8.576;2023-03-19T07:22:33;14.60;60.80
16827;DHT22;8530;49.540;8.576;2023-03-19T07:25:00;14.70;60.60
16827;DHT22;8530;49.540;8.576;2023-03-19T07:27:27;14.70;60.30
16827;DHT22;8530;49.540;8.576;2023-03-19T07:29:53;14.70;60.10
16827;DHT22;8530;49.540;8.576;2023-03-19T07:32:20;14.80;60.00
16827;DHT22;8530;49.540;8.576;2023-03-19T07:34:48;14.90;59.80
16827;DHT22;8530;49.540;8.576;2023-03-19T07:37:16;15.00;59.80
16827;DHT22;8530;49.540;8.576;2023-03-19T07:39:43;15.20;59.80
16827;DHT22;8530;49.540;8.576;2023-03-19T07:42:10;15.40;59.70
16827;DHT22;8530;49.540;8.576;2023-03-19T07:44:37;15.50;59.60
16827;DHT22;8530;49.540;8.576;2023-03-19T07:47:03;15.70;59.50
16827;DHT22;8530;49.540;8.576;2023-03-19T07:49:30;15.80;59.90
16827;DHT22;8530;49.540;8.576;2023-03-19T07:51:57;16.00;59.30
16827;DHT22;8530;49.540;8.576;2023-03-19T07:54:25;16.20;59.10
16827;DHT22;8530;49.540;8.576;2023-03-19T07:56:52;16.40;58.90
16827;DHT22;8530;49.540;8.576;2023-03-19T07:59:18;16.60;58.70
16827;DHT22;8530;49.540;8.576;2023-03-19T08:01:45;16.90;58.70
16827;DHT22;8530;49.540;8.576;2023-03-19T08:04:12;17.00;58.20
16827;DHT22;8530;49.540;8.576;2023-03-19T08:06:38;17.20;57.70
16827;DHT22;8530;49.540;8.576;2023-03-19T08:09:05;17.30;57.30
16827;DHT22;8530;49.540;8.576;2023-03-19T08:11:33;17.60;57.20
16827;DHT22;8530;49.540;8.576;2023-03-19T08:14:00;18.00;57.30
16827;DHT22;8530;49.540;8.576;2023-03-19T08:16:27;18.70;58.50
16827;DHT22;8530;49.540;8.576;2023-03-19T08:18:53;20.10;61.00
16827;DHT22;8530;49.540;8.576;2023-03-19T08:21:20;21.20;60.00
16827;DHT22;8530;49.540;8.576;2023-03-19T08:23:47;22.20;58.30
16827;DHT22;8530;49.540;8.576;2023-03-19T08:26:14;23.10;56.70
16827;DHT22;8530;49.540;8.576;2023-03-19T08:28:42;23.20;52.90
16827;DHT22;8530;49.540;8.576;2023-03-19T08:31:10;22.90;49.70
16827;DHT22;8530;49.540;8.576;2023-03-19T08:33:38;22.30;47.70
16827;DHT22;8530;49.540;8.576;2023-03-19T08:36:09;21.90;46.50
16827;DHT22;8530;49.540;8.576;2023-03-19T08:38:36;21.50;45.50
16827;DHT22;8530;49.540;8.576;2023-03-19T08:41:03;21.20;44.90
16827;DHT22;8530;49.540;8.576;2023-03-19T08:43:31;20.90;44.40
16827;DHT22;8530;49.540;8.576;2023-03-19T08:46:00;20.80;44.10
16827;DHT22;8530;49.540;8.576;2023-03-19T08:48:26;20.80;43.80
16827;DHT22;8530;49.540;8.576;2023-03-19T08:50:54;20.70;43.50
16827;DHT22;8530;49.540;8.576;2023-03-19T08:53:21;20.70;43.20
16827;DHT22;8530;49.540;8.576;2023-03-19T08:55:52;20.70;43.10
16827;DHT22;8530;49.540;8.576;2023-03-19T08:58:19;20.70;42.90
16827;DHT22;8530;49.540;8.576;2023-03-19T09:00:45;20.80;42.80
16827;DHT22;8530;49.540;8.576;2023-03-19T09:03:16;21.00;42.60
16827;DHT22;8530;49.540;8.576;2023-03-19T09:05:43;21.30;42.40
16827;DHT22;8530;49.540;8.576;2023-03-19T09:08:10;21.50;42.20
16827;DHT22;8530;49.540;8.576;2023-03-19T09:10:37;21.90;41.90
16827;DHT22;8530;49.540;8.576;2023-03-19T09:13:04;22.00;41.30
16827;DHT22;8530;49.540;8.576;2023-03-19T09:15:30;22.00;40.80
16827;DHT22;8530;49.540;8.576;2023-03-19T09:17:57;21.90;40.10
16827;DHT22;8530;49.540;8.576;2023-03-19T09:20:25;21.70;39.70
16827;DHT22;8530;49.540;8.576;2023-03-19T09:22:52;21.60;39.60
16827;DHT22;8530;49.540;8.576;2023-03-19T09:25:19;21.60;39.40
16827;DHT22;8530;49.540;8.576;2023-03-19T09:27:46;21.60;38.70
16827;DHT22;8530;49.540;8.576;2023-03-19T09:30:13;21.40;38.40
16827;DHT22;8530;49.540;8.576;2023-03-19T09:32:40;21.30;38.10
16827;DHT22;8530;49.540;8.576;2023-03-19T09:35:08;21.20;37.80
16827;DHT22;8530;49.540;8.576;2023-03-19T09:37:36;21.00;37.40
16827;DHT22;8530;49.540;8.576;2023-03-19T09:40:04;20.90;37.10
16827;DHT22;8530;49.540;8.576;2023-03-19T09:42:44;21.00;37.10
16827;DHT22;8530;49.540;8.576;2023-03-19T09:45:15;21.00;36.80
16827;DHT22;8530;49.540;8.576;2023-03-19T09:47:44;21.10;36.80
16827;DHT22;8530;49.540;8.576;2023-03-19T09:50:13;21.00;36.20
16827;DHT22;8530;49.540;8.576;2023-03-19T09:52:44;20.80;35.90
16827;DHT22;8530;49.540;8.576;2023-03-19T09:55:17;20.70;35.60
16827;DHT22;8530;49.540;8.576;2023-03-19T09:57:49;20.70;35.60
16827;DHT22;8530;49.540;8.576;2023-03-19T10:00:20;20.80;35.60
16827;DHT22;8530;49.540;8.576;2023-03-19T10:02:52;20.90;35.40
16827;DHT22;8530;49.540;8.576;2023-03-19T10:05:26;20.90;35.10
16827;DHT22;8530;49.540;8.576;2023-03-19T10:08:19;21.00;34.90
16827;DHT22;8530;49.540;8.576;2023-03-19T10:10:58;21.10;34.70
16827;DHT22;8530;49.540;8.576;2023-03-19T10:13:37;21.20;34.70
16827;DHT22;8530;49.540;8.576;2023-03-19T10:16:12;21.20;34.50
16827;DHT22;8530;49.540;8.576;2023-03-19T10:18:40;21.30;34.40
16827;DHT22;8530;49.540;8.576;2023-03-19T10:21:13;21.50;34.30
16827;DHT22;8530;49.540;8.576;2023-03-19T10:23:46;21.50;34.00
16827;DHT22;8530;49.540;8.576;2023-03-19T10:26:16;21.50;33.90
16827;DHT22;8530;49.540;8.576;2023-03-19T10:28:45;21.50;33.60
16827;DHT22;8530;49.540;8.576;2023-03-19T10:31:25;21.60;33.50
16827;DHT22;8530;49.540;8.576;2023-03-19T10:34:02;21.50;33.00
16827;DHT22;8530;49.540;8.576;2023-03-19T10:36:34;21.40;32.80
16827;DHT22;8530;49.540;8.576;2023-03-19T10:39:04;21.20;32.60
16827;DHT22;8530;49.540;8.576;2023-03-19T10:41:45;20.90;32.40
16827;DHT22;8530;49.540;8.576;2023-03-19T10:44:24;20.60;32.50
16827;DHT22;8530;49.540;8.576;2023-03-19T10:46:56;20.60;32.60
16827;DHT22;8530;49.540;8.576;2023-03-19T10:49:23;20.60;32.70
16827;DHT22;8530;49.540;8.576;2023-03-19T10:51:50;20.60;32.60
16827;DHT22;8530;49.540;8.576;2023-03-19T10:54:21;20.70;32.50
16827;DHT22;8530;49.540;8.576;2023-03-19T10:56:48;20.60;32.30
16827;DHT22;8530;49.540;8.576;2023-03-19T10:59:25;20.70;32.30
16827;DHT22;8530;49.540;8.576;2023-03-19T11:01:56;20.70;32.20
16827;DHT22;8530;49.540;8.576;2023-03-19T11:04:24;20.70;32.10
16827;DHT22;8530;49.540;8.576;2023-03-19T11:06:53;20.70;32.10
16827;DHT22;8530;49.540;8.576;2023-03-19T11:09:29;20.50;31.90
16827;DHT22;8530;49.540;8.576;2023-03-19T11:12:05;20.30;31.90
16827;DHT22;8530;49.540;8.576;2023-03-19T11:14:35;20.30;32.10
16827;DHT22;8530;49.540;8.576;2023-03-19T11:17:05;20.30;32.20
16827;DHT22;8530;49.540;8.576;2023-03-19T11:19:38;20.70;32.40
16827;DHT22;8530;49.540;8.576;2023-03-19T11:22:14;21.00;32.20
16827;DHT22;8530;49.540;8.576;2023-03-19T11:24:49;21.30;32.00
16827;DHT22;8530;49.540;8.576;2023-03-19T11:27:17;21.40;31.80
16827;DHT22;8530;49.540;8.576;2023-03-19T11:29:45;21.40;31.70
16827;DHT22;8530;49.540;8.576;2023-03-19T11:32:36;21.70;31.60
16827;DHT22;8530;49.540;8.576;2023-03-19T11:35:10;22.10;31.40
16827;DHT22;8530;49.540;8.576;2023-03-19T11:37:49;22.30;31.10
16827;DHT22;8530;49.540;8.576;2023-03-19T11:40:34;22.30;30.70
16827;DHT22;8530;49.540;8.576;2023-03-19T11:43:34;22.20;30.50
16827;DHT22;8530;49.540;8.576;2023-03-19T11:46:10;22.10;30.50
16827;DHT22;8530;49.540;8.576;2023-03-19T11:48:57;21.90;30.40
16827;DHT22;8530;49.540;8.576;2023-03-19T11:51:33;21.80;30.30
16827;DHT22;8530;49.540;8.576;2023-03-19T11:54:05;21.70;30.20
16827;DHT22;8530;49.540;8.576;2023-03-19T11:56:41;21.50;30.20
16827;DHT22;8530;49.540;8.576;2023-03-19T12:02:24;21.30;30.30
16827;DHT22;8530;49.540;8.576;2023-03-19T12:05:16;21.20;30.40
16827;DHT22;8530;49.540;8.576;2023-03-19T12:07:48;21.00;30.40
16827;DHT22;8530;49.540;8.576;2023-03-19T12:10:28;20.90;30.40
16827;DHT22;8530;49.540;8.576;2023-03-19T12:13:08;20.70;30.30
16827;DHT22;8530;49.540;8.576;2023-03-19T12:15:40;20.60;30.40
16827;DHT22;8530;49.540;8.576;2023-03-19T12:18:18;20.50;30.60
16827;DHT22;8530;49.540;8.576;2023-03-19T12:20:55;20.40;30.70
16827;DHT22;8530;49.540;8.576;2023-03-19T12:23:35;20.40;30.90
16827;DHT22;8530;49.540;8.576;2023-03-19T12:26:07;20.20;31.00
16827;DHT22;8530;49.540;8.576;2023-03-19T12:28:40;19.80;31.30
16827;DHT22;8530;49.540;8.576;2023-03-19T12:31:27;19.60;32.00
16827;DHT22;8530;49.540;8.576;2023-03-19T12:34:09;19.40;32.80
16827;DHT22;8530;49.540;8.576;2023-03-19T12:36:42;19.40;33.50
16827;DHT22;8530;49.540;8.576;2023-03-19T12:39:16;19.40;34.00
16827;DHT22;8530;49.540;8.576;2023-03-19T12:41:45;19.60;34.70
16827;DHT22;8530;49.540;8.576;2023-03-19T12:44:18;19.90;35.10
16827;DHT22;8530;49.540;8.576;2023-03-19T12:46:52;20.00;35.20
16827;DHT22;8530;49.540;8.576;2023-03-19T12:49:24;20.20;35.50
16827;DHT22;8530;49.540;8.576;2023-03-19T12:51:58;20.30;35.70
16827;DHT22;8530;49.540;8.576;2023-03-19T12:54:28;20.30;35.60
16827;DHT22;8530;49.540;8.576;2023-03-19T12:56:58;20.20;35.50
16827;DHT22;8530;49.540;8.576;2023-03-19T12:59:32;20.10;35.50
16827;DHT22;8530;49.540;8.576;2023-03-19T13:02:10;20.00;35.60
16827;DHT22;8530;49.540;8.576;2023-03-19T13:04:48;19.80;35.60
16827;DHT22;8530;49.540;8.576;2023-03-19T13:07:21;19.70;35.60
16827;DHT22;8530;49.540;8.576;2023-03-19T13:09:57;19.50;35.60
16827;DHT22;8530;49.540;8.576;2023-03-19T13:12:28;19.20;35.70
16827;DHT22;8530;49.540;8.576;2023-03-19T13:15:00;19.00;36.00
16827;DHT22;8530;49.540;8.576;2023-03-19T13:17:34;18.70;36.50
16827;DHT22;8530;49.540;8.576;2023-03-19T13:20:16;18.40;37.00
16827;DHT22;8530;49.540;8.576;2023-03-19T13:22:50;18.20;37.60
16827;DHT22;8530;49.540;8.576;2023-03-19T13:25:22;18.00;38.10
16827;DHT22;8530;49.540;8.576;2023-03-19T13:27:54;17.80;38.50
16827;DHT22;8530;49.540;8.576;2023-03-19T13:30:23;17.70;38.90
16827;DHT22;8530;49.540;8.576;2023-03-19T13:33:00;17.60;39.80
16827;DHT22;8530;49.540;8.576;2023-03-19T13:35:34;17.30;40.00
16827;DHT22;8530;49.540;8.576;2023-03-19T13:38:10;17.10;40.40
16827;DHT22;8530;49.540;8.576;2023-03-19T13:40:42;16.90;41.10
16827;DHT22;8530;49.540;8.576;2023-03-19T13:43:50;16.60;41.70
16827;DHT22;8530;49.540;8.576;2023-03-19T13:46:36;16.30;42.80
16827;DHT22;8530;49.540;8.576;2023-03-19T13:49:29;16.00;43.10
16827;DHT22;8530;49.540;8.576;2023-03-19T13:52:00;15.90;44.40
16827;DHT22;8530;49.540;8.576;2023-03-19T13:54:36;15.80;44.40
16827;DHT22;8530;49.540;8.576;2023-03-19T13:57:16;15.90;45.30
16827;DHT22;8530;49.540;8.576;2023-03-19T13:59:45;15.90;45.70
16827;DHT22;8530;49.540;8.576;2023-03-19T14:02:47;16.00;46.50
16827;DHT22;8530;49.540;8.576;2023-03-19T14:05:17;16.00;47.20
16827;DHT22;8530;49.540;8.576;2023-03-19T14:07:49;16.00;47.30
16827;DHT22;8530;49.540;8.576;2023-03-19T14:10:24;16.00;47.90
16827;DHT22;8530;49.540;8.576;2023-03-19T14:13:02;15.90;48.10
16827;DHT22;8530;49.540;8.576;2023-03-19T14:15:30;15.90;48.60
16827;DHT22;8530;49.540;8.576;2023-03-19T14:18:01;15.80;48.80
16827;DHT22;8530;49.540;8.576;2023-03-19T14:20:32;15.70;49.20
16827;DHT22;8530;49.540;8.576;2023-03-19T14:23:17;15.70;49.70
16827;DHT22;8530;49.540;8.576;2023-03-19T14:25:55;15.80;50.50
16827;DHT22;8530;49.540;8.576;2023-03-19T14:28:27;15.90;50.80
16827;DHT22;8530;49.540;8.576;2023-03-19T14:30:57;16.00;51.10
16827;DHT22;8530;49.540;8.576;2023-03-19T14:33:31;16.10;51.40
16827;DHT22;8530;49.540;8.576;2023-03-19T14:36:03;16.20;51.90
16827;DHT22;8530;49.540;8.576;2023-03-19T14:38:35;16.20;52.20
16827;DHT22;8530;49.540;8.576;2023-03-19T14:41:04;16.30;52.60
16827;DHT22;8530;49.540;8.576;2023-03-19T14:43:59;16.30;52.50
16827;DHT22;8530;49.540;8.576;2023-03-19T14:46:41;16.30;52.90
16827;DHT22;8530;49.540;8.576;2023-03-19T14:49:35;16.50;53.20
16827;DHT22;8530;49.540;8.576;2023-03-19T14:52:06;16.70;53.50
16827;DHT22;8530;49.540;8.576;2023-03-19T14:54:36;16.80;53.30
16827;DHT22;8530;49.540;8.576;2023-03-19T14:57:07;16.90;53.40
16827;DHT22;8530;49.540;8.576;2023-03-19T14:59:38;16.90;53.60
16827;DHT22;8530;49.540;8.576;2023-03-19T15:02:17;16.90;53.80
16827;DHT22;8530;49.540;8.576;2023-03-19T15:04:47;16.90;54.00
16827;DHT22;8530;49.540;8.576;2023-03-19T15:07:18;17.00;54.10
16827;DHT22;8530;49.540;8.576;2023-03-19T15:09:48;16.90;54.10
16827;DHT22;8530;49.540;8.576;2023-03-19T15:12:34;16.80;54.30
16827;DHT22;8530;49.540;8.576;2023-03-19T15:18:01;16.60;54.80
16827;DHT22;8530;49.540;8.576;2023-03-19T15:20:35;16.60;54.90
16827;DHT22;8530;49.540;8.576;2023-03-19T15:23:05;16.70;55.20
16827;DHT22;8530;49.540;8.576;2023-03-19T15:25:33;16.70;55.20
16827;DHT22;8530;49.540;8.576;2023-03-19T15:28:07;16.60;55.30
16827;DHT22;8530;49.540;8.576;2023-03-19T15:30:35;16.70;56.10
16827;DHT22;8530;49.540;8.576;2023-03-19T15:33:02;16.70;55.70
16827;DHT22;8530;49.540;8.576;2023-03-19T15:35:32;16.90;55.90
16827;DHT22;8530;49.540;8.576;2023-03-19T15:38:02;16.90;55.90
16827;DHT22;8530;49.540;8.576;2023-03-19T15:40:32;17.00;56.00
16827;DHT22;8530;49.540;8.576;2023-03-19T15:43:01;17.10;55.90
16827;DHT22;8530;49.540;8.576;2023-03-19T15:45:28;17.10;55.90
16827;DHT22;8530;49.540;8.576;2023-03-19T15:48:01;17.10;55.90
16827;DHT22;8530;49.540;8.576;2023-03-19T15:50:32;17.10;55.90
16827;DHT22;8530;49.540;8.576;2023-03-19T15:53:02;17.10;55.80
16827;DHT22;8530;49.540;8.576;2023-03-19T15:55:32;17.00;55.80
16827;DHT22;8530;49.540;8.576;2023-03-19T15:58:05;17.10;55.90
16827;DHT22;8530;49.540;8.576;2023-03-19T16:00:35;17.20;56.00
16827;DHT22;8530;49.540;8.576;2023-03-19T16:03:04;17.20;56.00
16827;DHT22;8530;49.540;8.576;2023-03-19T16:05:32;17.20;56.00
16827;DHT22;8530;49.540;8.576;2023-03-19T16:08:01;17.10;55.80
16827;DHT22;8530;49.540;8.576;2023-03-19T16:10:34;17.10;55.90